createdAt,value
2022-12-25T12:10:34.974Z,5.00
2022-12-25T12:13:56.103Z,7.10
2022-12-25T12:17:02.897Z,4.40
2022-12-25T12:20:28.148Z,4.60
2022-12-25T12:23:38.168Z,4.20
2022-12-25T12:26:46.307Z,4.70
2022-12-25T12:29:55.432Z,4.40
2022-12-25T12:33:03.320Z,4.50
2022-12-25T12:36:12.717Z,4.50
2022-12-25T12:39:27.256Z,3.60
2022-12-25T12:42:38.953Z,3.80
2022-12-25T12:45:44.926Z,3.70
2022-12-25T12:48:53.601Z,4.00
2022-12-25T12:52:26.670Z,3.90
2022-12-25T12:55:34.933Z,4.10
2022-12-25T12:58:50.141Z,3.60
2022-12-25T13:02:07.204Z,3.70
2022-12-25T13:05:21.117Z,4.00
2022-12-25T13:08:43.636Z,4.30
2022-12-25T13:11:50.526Z,3.60
2022-12-25T13:14:57.115Z,4.10
2022-12-25T13:18:08.299Z,4.30
2022-12-25T13:21:23.461Z,4.20
2022-12-25T13:24:32.230Z,4.00
2022-12-25T13:27:38.561Z,3.90
2022-12-25T13:30:47.202Z,4.50
2022-12-25T13:33:58.009Z,4.40
2022-12-25T13:37:11.364Z,5.50
2022-12-25T13:40:29.361Z,6.00
2022-12-25T13:43:35.600Z,8.90
2022-12-25T13:49:46.971Z,7.00
2022-12-25T13:52:54.176Z,5.50
2022-12-25T13:56:01.466Z,5.20
2022-12-25T13:59:07.834Z,5.40
2022-12-25T14:02:21.563Z,6.10
2022-12-25T14:05:34.745Z,5.40
2022-12-25T14:08:46.397Z,5.20
2022-12-25T14:11:55.152Z,5.50
2022-12-25T14:15:02.275Z,6.90
2022-12-25T14:18:15.594Z,8.30
2022-12-25T14:21:28.827Z,9.10
2022-12-25T14:24:36.101Z,9.40
2022-12-25T14:27:42.356Z,8.90
2022-12-25T14:33:54.207Z,6.70
2022-12-25T14:37:01.197Z,6.20
2022-12-25T14:40:21.704Z,32.30
2022-12-25T14:43:30.723Z,11.60
2022-12-25T14:46:37.426Z,9.00
2022-12-25T14:49:44.180Z,12.80
2022-12-25T14:52:50.524Z,19.50
2022-12-25T14:59:04.039Z,36.10
2022-12-25T15:02:20.437Z,39.30
2022-12-25T15:05:33.137Z,29.70
2022-12-25T15:08:41.243Z,12.40
2022-12-25T15:11:50.898Z,7.70
2022-12-25T15:14:57.086Z,11.50
2022-12-25T15:18:05.277Z,17.50
2022-12-25T15:21:16.726Z,27.60
2022-12-25T15:24:23.014Z,22.40
2022-12-25T15:30:35.585Z,19.90
2022-12-25T15:33:44.256Z,19.10
2022-12-25T15:36:52.682Z,18.10
2022-12-25T15:39:59.606Z,22.20
2022-12-25T15:43:11.553Z,19.40
2022-12-25T15:46:28.868Z,15.10
2022-12-25T15:52:39.843Z,15.70
2022-12-25T15:58:50.857Z,8.20
2022-12-25T16:01:58.836Z,7.40
2022-12-25T16:05:10.292Z,8.10
2022-12-25T16:08:17.032Z,8.60
2022-12-25T16:14:27.679Z,9.30
2022-12-25T16:17:33.887Z,9.50
2022-12-25T16:20:40.103Z,12.90
2022-12-25T16:23:46.643Z,14.70
2022-12-25T16:26:52.930Z,12.00
2022-12-25T16:33:03.858Z,11.10
2022-12-25T16:39:15.364Z,8.30
2022-12-25T16:42:21.595Z,13.10
2022-12-25T16:45:28.010Z,19.00
2022-12-25T16:48:34.208Z,14.60
2022-12-25T16:51:40.336Z,16.10
2022-12-25T16:54:48.082Z,10.00
2022-12-25T16:57:54.366Z,12.30
2022-12-25T17:04:11.710Z,15.60
2022-12-25T17:07:18.981Z,14.80
2022-12-25T17:10:25.277Z,12.60
2022-12-25T17:16:38.512Z,31.00
2022-12-25T17:19:44.811Z,24.10
2022-12-25T17:22:52.927Z,21.30
2022-12-25T17:26:03.208Z,23.00
2022-12-25T17:29:09.735Z,17.20
2022-12-25T17:32:15.911Z,16.40
2022-12-25T17:35:23.539Z,19.90
2022-12-25T17:38:29.869Z,22.40
2022-12-25T17:44:40.727Z,24.90
2022-12-25T17:47:47.006Z,21.40
2022-12-25T17:54:00.298Z,20.60
2022-12-25T17:57:06.523Z,23.90
2022-12-25T18:00:14.395Z,27.00
2022-12-25T18:03:21.408Z,26.20
2022-12-25T18:06:29.690Z,30.10
2022-12-25T18:09:35.927Z,31.90
2022-12-25T18:12:44.132Z,32.10
2022-12-25T18:15:50.420Z,23.30
2022-12-25T18:22:01.554Z,34.40
2022-12-25T18:25:09.045Z,32.80
2022-12-25T18:28:15.690Z,40.50
2022-12-25T18:31:24.616Z,38.30
2022-12-25T18:34:30.808Z,36.70
2022-12-25T18:37:40.223Z,30.90
2022-12-25T18:40:48.869Z,32.20
2022-12-25T18:43:55.996Z,29.70
2022-12-25T18:47:02.576Z,28.60
2022-12-25T18:53:14.754Z,24.90
2022-12-25T18:59:25.667Z,29.90
2022-12-25T19:02:32.288Z,32.50
2022-12-25T19:05:41.505Z,33.20
2022-12-25T19:08:47.835Z,30.90
2022-12-25T19:18:04.661Z,37.30
2022-12-25T19:21:11.761Z,39.10
2022-12-25T19:24:17.960Z,32.30
2022-12-25T19:27:24.301Z,33.60
2022-12-25T19:33:36.177Z,30.30
2022-12-25T19:36:42.541Z,28.80
2022-12-25T19:42:53.519Z,33.90
2022-12-25T19:46:00.003Z,31.10
2022-12-25T19:49:07.839Z,31.60
2022-12-25T19:52:15.253Z,34.60
2022-12-25T19:55:22.153Z,32.20
2022-12-25T19:58:28.456Z,35.70
2022-12-25T20:04:39.773Z,35.40
2022-12-25T20:07:46.011Z,38.80
2022-12-25T20:10:52.741Z,37.80
2022-12-25T20:13:59.174Z,34.20
2022-12-25T20:17:07.306Z,38.60
2022-12-25T20:20:17.561Z,34.40
2022-12-25T20:23:24.002Z,38.30
2022-12-25T20:26:32.233Z,33.80
2022-12-25T20:29:39.797Z,37.80
2022-12-25T20:32:50.432Z,36.80
2022-12-25T20:36:00.165Z,35.80
2022-12-25T20:39:09.849Z,35.70
2022-12-25T20:42:16.438Z,35.10
2022-12-25T20:45:22.723Z,45.90
2022-12-25T20:51:33.464Z,37.50
2022-12-25T20:54:40.182Z,37.50
2022-12-25T20:57:46.461Z,39.00
2022-12-25T21:03:57.909Z,34.20
2022-12-25T21:07:05.259Z,35.20
2022-12-25T21:10:13.069Z,37.90
2022-12-25T21:13:20.119Z,30.40
2022-12-25T21:16:27.360Z,35.70
2022-12-25T21:19:33.691Z,37.70
2022-12-25T21:25:44.593Z,41.30
2022-12-25T21:32:28.017Z,79.40
2022-12-25T21:35:36.683Z,63.90
2022-12-25T21:38:42.887Z,46.40
2022-12-25T21:41:49.229Z,59.80
2022-12-25T21:48:03.028Z,47.50
2022-12-25T21:51:32.268Z,50.50
2022-12-25T21:54:38.705Z,47.00
2022-12-25T21:57:45.026Z,52.70
2022-12-25T22:03:55.722Z,56.50
2022-12-25T22:07:20.075Z,52.30
2022-12-25T22:10:26.380Z,51.40
2022-12-25T22:17:11.963Z,52.70
2022-12-25T22:20:20.064Z,46.70
2022-12-25T22:23:26.317Z,35.80
2022-12-25T22:26:32.598Z,40.10
2022-12-25T22:32:43.742Z,42.30
2022-12-25T22:38:54.516Z,49.50
2022-12-25T22:42:02.405Z,34.30
2022-12-25T22:45:10.340Z,30.70
2022-12-25T22:48:16.700Z,43.00
2022-12-25T22:54:29.964Z,42.80
2022-12-25T22:57:36.294Z,47.90
2022-12-25T23:03:56.183Z,46.70
2022-12-25T23:07:02.280Z,42.00
2022-12-25T23:10:10.830Z,57.10
2022-12-25T23:13:35.118Z,39.00
2022-12-25T23:16:41.292Z,38.10
2022-12-25T23:20:05.329Z,44.60
2022-12-25T23:23:33.183Z,107.10
2022-12-25T23:26:39.304Z,34.40
2022-12-25T23:29:45.635Z,46.80
2022-12-25T23:35:56.360Z,40.00
2022-12-25T23:42:16.310Z,27.70
2022-12-25T23:48:27.243Z,27.50
2022-12-25T23:54:38.287Z,25.80
2022-12-25T23:57:44.627Z,27.60
